Time;durP1;ratioP1;P1;durP2;ratioP2;P2;SDS_P1;SDS_P2;PMS_P1;PMS_P2;Temp;Humidity;BMP_temperature;BMP_pressure;BME280_temperature;BME280_humidity;BME280_pressure;Samples;Min_cycle;Max_cycle;Signal;HPM_P1;HPM_P2
2023/12/14 00:00:58;;;;;;;7.30;2.30;;;;;;;4.20;68.28;98928.06;10514819;28;20083;-64
2023/12/14 00:06:00;;;;;;;2.95;1.70;;;;;;;4.19;67.95;98936.72;10514482;28;20044;-64
2023/12/14 00:11:06;;;;;;;2.80;1.33;;;;;;;4.16;68.15;98942.06;10496993;28;20048;-64
2023/12/14 00:16:08;;;;;;;10.07;2.03;;;;;;;4.07;68.07;98960.63;10529799;28;20461;-64
2023/12/14 00:21:10;;;;;;;15.23;2.38;;;;;;;4.05;68.19;98970.22;10515879;28;20139;-64
2023/12/14 00:26:12;;;;;;;13.02;2.30;;;;;;;4.03;68.16;98974.63;10521908;28;20238;-64
2023/12/14 00:31:15;;;;;;;42.20;2.10;;;;;;;4.10;68.07;98975.16;10522057;28;20127;-65
2023/12/14 00:36:20;;;;;;;8.93;1.63;;;;;;;4.05;67.78;98982.34;10521324;28;20055;-64
2023/12/14 00:41:22;;;;;;;8.20;1.30;;;;;;;4.01;68.23;98991.97;10496128;28;20641;-65
2023/12/14 00:46:24;;;;;;;2.70;1.48;;;;;;;4.03;68.01;99005.66;10520253;28;20050;-65
2023/12/14 00:51:26;;;;;;;2.83;1.73;;;;;;;4.07;68.04;99022.72;10480740;28;20407;-64
2023/12/14 00:56:28;;;;;;;4.35;1.75;;;;;;;4.13;67.95;99031.97;10536222;28;20047;-64
2023/12/14 01:01:30;;;;;;;3.50;1.70;;;;;;;4.15;67.70;99036.13;10503492;28;20069;-64
2023/12/14 01:06:32;;;;;;;5.85;1.45;;;;;;;4.18;68.25;99051.53;10519774;28;20117;-65
2023/12/14 01:11:34;;;;;;;45.97;2.75;;;;;;;4.18;67.86;99061.03;10503285;28;20131;-64
2023/12/14 01:16:36;;;;;;;4.50;1.52;;;;;;;4.26;67.76;99064.09;10520749;28;20320;-64
2023/12/14 01:21:38;;;;;;;2.80;1.55;;;;;;;4.30;67.86;99066.47;10502960;28;20047;-64
2023/12/14 01:26:40;;;;;;;2.42;1.40;;;;;;;4.34;67.72;99075.75;10520082;28;20736;-64
2023/12/14 01:31:42;;;;;;;6.63;2.03;;;;;;;4.16;67.83;99083.56;10519355;28;20048;-65
2023/12/14 01:36:44;;;;;;;3.65;1.80;;;;;;;4.27;67.87;99089.06;10518832;28;20044;-64
2023/12/14 01:41:46;;;;;;;5.57;1.95;;;;;;;4.31;67.78;99088.81;10519238;28;20048;-64
2023/12/14 01:46:47;;;;;;;15.32;1.92;;;;;;;4.32;67.64;99103.47;10518985;28;20040;-65
2023/12/14 01:51:50;;;;;;;2.92;1.67;;;;;;;4.39;67.75;99116.97;10518210;28;20055;-64
2023/12/14 01:56:53;;;;;;;2.33;1.58;;;;;;;4.49;67.25;99113.03;10518304;28;20306;-64
2023/12/14 02:01:56;;;;;;;2.70;1.70;;;;;;;4.45;67.47;99127.03;10515850;28;20062;-64
2023/12/14 02:07:00;;;;;;;3.88;1.92;;;;;;;4.42;67.54;99138.34;10517913;28;20151;-64
2023/12/14 02:12:02;;;;;;;3.20;1.58;;;;;;;4.50;67.40;99135.41;10517826;28;20455;-64
2023/12/14 02:17:04;;;;;;;2.40;1.58;;;;;;;4.52;67.20;99141.34;10516971;28;20056;-64
2023/12/14 02:22:08;;;;;;;3.53;1.77;;;;;;;4.54;67.40;99145.53;10517173;28;20059;-64
2023/12/14 02:27:10;;;;;;;4.15;1.95;;;;;;;4.45;67.32;99147.72;10517304;28;20038;-65
2023/12/14 02:32:12;;;;;;;3.58;1.60;;;;;;;4.46;67.63;99144.22;10517216;28;20055;-65
2023/12/14 02:37:14;;;;;;;2.75;1.65;;;;;;;4.45;67.71;99153.75;10498509;28;20048;-65
2023/12/14 02:42:16;;;;;;;10.70;2.25;;;;;;;4.52;67.43;99155.13;10516852;28;20570;-65
2023/12/14 02:47:18;;;;;;;3.50;1.67;;;;;;;4.52;67.34;99167.22;10516160;28;20131;-65
2023/12/14 02:52:20;;;;;;;3.40;2.05;;;;;;;4.54;67.69;99163.66;10498125;28;20086;-65
2023/12/14 02:57:23;;;;;;;3.80;2.25;;;;;;;4.62;67.96;99174.50;10516112;28;20163;-65
2023/12/14 03:02:25;;;;;;;3.95;2.00;;;;;;;4.54;67.78;99189.56;10515853;28;20051;-65
2023/12/14 03:07:27;;;;;;;4.53;2.17;;;;;;;4.62;68.08;99184.00;10515790;28;20079;-65
2023/12/14 03:12:29;;;;;;;5.07;1.70;;;;;;;4.62;68.16;99190.03;10515399;28;20051;-65
2023/12/14 03:17:31;;;;;;;3.05;1.88;;;;;;;4.57;68.59;99199.78;10512435;28;20055;-65
2023/12/14 03:22:33;;;;;;;3.63;1.95;;;;;;;4.76;68.27;99204.09;10491075;28;20044;-65
2023/12/14 03:27:35;;;;;;;3.92;2.28;;;;;;;4.86;68.12;99220.88;10495887;28;20628;-65
2023/12/14 03:32:37;;;;;;;3.88;2.05;;;;;;;5.10;68.09;99219.69;10514519;28;20056;-65
2023/12/14 03:37:40;;;;;;;4.72;2.03;;;;;;;5.31;67.64;99221.22;10497463;28;20500;-65
2023/12/14 03:42:42;;;;;;;4.18;1.95;;;;;;;5.28;67.20;99240.38;10497005;28;20058;-65
2023/12/14 03:47:44;;;;;;;3.25;1.95;;;;;;;5.24;67.51;99248.34;10515097;28;20468;-65
2023/12/14 03:52:46;;;;;;;3.00;1.55;;;;;;;5.21;67.05;99254.53;10514268;28;20105;-65
2023/12/14 03:57:48;;;;;;;3.28;1.67;;;;;;;5.12;67.22;99267.09;10519110;28;20717;-65
2023/12/14 04:02:51;;;;;;;4.07;2.13;;;;;;;5.11;67.16;99268.84;10501143;28;20637;-65
2023/12/14 04:07:55;;;;;;;4.03;1.88;;;;;;;5.18;67.65;99272.84;10522216;28;20537;-64
2023/12/14 04:12:57;;;;;;;3.67;2.00;;;;;;;5.33;67.41;99282.44;10522995;28;20052;-64
2023/12/14 04:17:59;;;;;;;2.72;1.73;;;;;;;5.36;67.36;99289.25;10522457;28;20044;-66
2023/12/14 04:23:01;;;;;;;3.65;1.85;;;;;;;5.41;67.60;99290.69;10504245;28;20052;-64
2023/12/14 04:28:03;;;;;;;5.47;2.55;;;;;;;5.44;67.23;99298.31;10523075;28;20036;-64
2023/12/14 04:33:05;;;;;;;3.00;1.92;;;;;;;5.43;67.35;99307.00;10503748;28;20040;-64
2023/12/14 04:38:08;;;;;;;7.43;2.95;;;;;;;5.48;67.81;99311.97;10521962;28;20060;-64
2023/12/14 04:43:10;;;;;;;5.93;2.67;;;;;;;5.61;67.50;99307.88;10521516;28;20051;-64
2023/12/14 04:48:12;;;;;;;5.47;2.55;;;;;;;5.67;67.47;99310.16;10519393;28;20486;-64
2023/12/14 04:53:14;;;;;;;5.85;2.42;;;;;;;5.70;67.61;99312.59;10501583;28;20140;-64
2023/12/14 04:58:16;;;;;;;13.32;2.47;;;;;;;5.80;67.53;99320.78;10502718;28;20055;-64
2023/12/14 05:03:18;;;;;;;8.48;2.45;;;;;;;5.89;67.48;99328.94;10502605;28;20040;-65
2023/12/14 05:08:20;;;;;;;6.82;2.42;;;;;;;5.89;66.96;99346.25;10519727;28;20044;-64
2023/12/14 05:13:22;;;;;;;4.32;2.20;;;;;;;5.88;67.37;99355.78;10520093;28;20044;-64
2023/12/14 05:18:24;;;;;;;7.30;3.40;;;;;;;5.90;67.29;99366.94;10519613;28;20056;-65
2023/12/14 05:23:27;;;;;;;5.38;2.53;;;;;;;5.91;67.36;99378.16;10533092;27;20455;-63
2023/12/14 05:28:29;;;;;;;4.45;2.45;;;;;;;5.88;67.17;99386.13;10518694;28;20154;-64
2023/12/14 05:33:33;;;;;;;6.10;2.78;;;;;;;5.81;67.52;99390.75;10494456;28;20389;-64
2023/12/14 05:38:38;;;;;;;4.80;2.47;;;;;;;5.86;67.56;99399.13;10515858;28;20044;-63
2023/12/14 05:43:40;;;;;;;4.05;2.15;;;;;;;5.84;67.50;99416.53;10509539;28;20062;-64
2023/12/14 05:48:42;;;;;;;5.25;2.72;;;;;;;5.78;68.10;99416.84;10513810;28;20048;-64
2023/12/14 05:53:44;;;;;;;5.18;2.55;;;;;;;5.99;67.88;99422.75;10513138;28;20544;-64
2023/12/14 05:58:46;;;;;;;6.50;2.67;;;;;;;6.12;67.68;99424.66;10514542;28;20516;-64
2023/12/14 06:03:48;;;;;;;5.65;3.03;;;;;;;6.24;67.50;99431.84;10494757;28;20411;-64
2023/12/14 06:08:50;;;;;;;4.28;2.55;;;;;;;6.24;67.65;99436.19;10496538;28;20231;-64
2023/12/14 06:13:52;;;;;;;5.38;2.53;;;;;;;6.23;67.44;99455.28;10488248;28;20058;-64
2023/12/14 06:18:54;;;;;;;8.15;3.38;;;;;;;6.18;68.34;99463.31;10512636;28;20421;-64
2023/12/14 06:23:58;;;;;;;8.85;5.20;;;;;;;6.39;68.63;99471.00;10513117;28;20480;-64
2023/12/14 06:29:01;;;;;;;10.18;5.05;;;;;;;6.55;68.53;99482.28;10514002;28;20355;-64
2023/12/14 06:34:03;;;;;;;9.80;4.57;;;;;;;6.73;68.36;99481.34;10511182;28;20667;-64
2023/12/14 06:39:06;;;;;;;6.45;3.05;;;;;;;6.85;67.94;99496.31;10513746;28;20325;-64
2023/12/14 06:44:09;;;;;;;6.50;3.40;;;;;;;6.83;67.61;99503.34;10513212;28;20044;-64
2023/12/14 06:49:11;;;;;;;5.10;2.97;;;;;;;6.67;67.87;99515.44;10499176;28;20285;-63
2023/12/14 06:54:13;;;;;;;7.60;4.00;;;;;;;6.68;68.19;99517.09;10515075;28;20048;-64
2023/12/14 06:59:15;;;;;;;6.80;3.38;;;;;;;6.73;68.12;99522.94;10516802;28;20044;-63
2023/12/14 07:04:19;;;;;;;7.10;3.67;;;;;;;6.87;67.85;99543.88;10496141;28;20496;-63
2023/12/14 07:09:21;;;;;;;10.73;4.10;;;;;;;6.84;68.04;99554.41;10516234;28;20047;-63
2023/12/14 07:14:23;;;;;;;6.38;3.33;;;;;;;6.75;68.08;99552.28;10497158;28;20044;-64
2023/12/14 07:19:27;;;;;;;6.07;2.38;;;;;;;6.62;67.89;99578.03;10481414;28;20102;-63
2023/12/14 07:24:29;;;;;;;5.18;3.08;;;;;;;6.60;68.17;99587.66;10515734;28;20131;-63
2023/12/14 07:29:45;;;;;;;5.63;2.92;;;;;;;6.65;68.16;99590.03;10515020;28;20047;-64
2023/12/14 07:34:47;;;;;;;5.03;2.53;;;;;;;6.67;68.35;99601.19;10496683;28;20056;-64
2023/12/14 07:39:49;;;;;;;6.05;2.92;;;;;;;6.64;68.13;99619.50;10479300;28;20143;-64
2023/12/14 07:44:51;;;;;;;8.70;2.55;;;;;;;6.72;68.01;99628.63;10515126;28;20411;-63
2023/12/14 07:49:53;;;;;;;5.72;2.40;;;;;;;6.76;68.16;99642.31;10515365;28;20047;-64
2023/12/14 07:54:55;;;;;;;5.47;2.65;;;;;;;6.80;68.18;99649.03;10513412;28;20082;-64
2023/12/14 07:59:57;;;;;;;4.78;2.55;;;;;;;6.92;67.93;99656.22;10496938;28;20182;-64
2023/12/14 08:05:00;;;;;;;5.25;2.55;;;;;;;7.03;67.78;99665.22;10480849;28;20291;-63
2023/12/14 08:10:02;;;;;;;6.95;2.97;;;;;;;7.01;68.05;99674.84;10508944;28;20495;-64
2023/12/14 08:15:05;;;;;;;6.45;2.83;;;;;;;7.15;67.82;99680.19;10518999;28;20130;-64
2023/12/14 08:20:08;;;;;;;4.45;2.47;;;;;;;7.31;67.59;99695.88;10492261;28;20677;-64
2023/12/14 08:25:14;;;;;;;6.85;3.05;;;;;;;7.34;67.52;99713.09;10507986;28;20070;-64
2023/12/14 08:30:17;;;;;;;6.35;2.67;;;;;;;7.37;67.57;99723.31;10484133;28;20032;-65
2023/12/14 08:35:19;;;;;;;5.13;2.70;;;;;;;7.50;67.39;99734.81;10507577;28;20512;-64
2023/12/14 08:40:21;;;;;;;6.07;2.72;;;;;;;7.53;67.19;99735.50;10490710;28;20500;-64
2023/12/14 08:45:23;;;;;;;5.60;2.67;;;;;;;7.62;67.07;99744.59;10518692;28;20048;-62
2023/12/14 08:50:28;;;;;;;3.75;2.10;;;;;;;7.37;67.20;99759.75;10520393;28;20124;-66
2023/12/14 08:55:30;;;;;;;5.93;2.63;;;;;;;7.24;67.38;99774.28;10503551;28;20044;-68
2023/12/14 09:00:32;;;;;;;5.38;2.78;;;;;;;7.38;67.50;99790.06;10519725;28;20052;-68
2023/12/14 09:05:34;;;;;;;4.38;2.15;;;;;;;7.37;67.40;99796.16;10519755;28;20109;-67
2023/12/14 09:10:37;;;;;;;5.03;2.47;;;;;;;7.31;67.33;99805.13;10519740;28;20048;-67
2023/12/14 09:15:39;;;;;;;4.60;2.47;;;;;;;7.43;67.15;99822.75;10520017;28;20495;-67
2023/12/14 09:20:42;;;;;;;5.50;2.47;;;;;;;7.38;67.34;99835.16;10519435;28;20507;-67
2023/12/14 09:25:45;;;;;;;6.55;2.50;;;;;;;7.31;67.35;99853.69;10520490;28;20107;-67
2023/12/14 09:30:47;;;;;;;7.00;2.60;;;;;;;7.47;67.38;99852.06;10519046;28;20262;-67
2023/12/14 09:35:49;;;;;;;5.95;2.70;;;;;;;7.57;66.97;99861.94;10519214;28;20057;-67
2023/12/14 09:40:51;;;;;;;5.57;2.28;;;;;;;7.62;67.02;99872.13;10535143;27;20048;-66
2023/12/14 09:45:55;;;;;;;4.60;2.38;;;;;;;7.61;66.88;99889.50;10518284;28;20050;-66
2023/12/14 09:50:57;;;;;;;4.32;2.22;;;;;;;7.78;66.86;99897.34;10500833;28;20120;-68
2023/12/14 09:55:59;;;;;;;5.65;2.40;;;;;;;7.80;66.86;99905.94;10534895;28;20119;-67
2023/12/14 10:01:04;;;;;;;4.78;2.38;;;;;;;7.83;66.91;99908.38;10517044;28;20048;-68
2023/12/14 10:06:06;;;;;;;9.60;3.30;;;;;;;7.76;66.91;99912.19;10519261;28;20289;-67
2023/12/14 10:11:16;;;;;;;6.00;2.45;;;;;;;7.63;66.93;99918.09;10518436;28;20135;-67
2023/12/14 10:16:32;;;;;;;4.65;2.50;;;;;;;7.59;67.06;99925.16;10501376;28;20044;-66
2023/12/14 10:21:34;;;;;;;5.63;2.67;;;;;;;7.55;66.91;99928.84;10517582;28;20105;-67
2023/12/14 10:26:37;;;;;;;4.38;2.22;;;;;;;7.51;67.03;99929.91;10498419;28;20043;-67
2023/12/14 10:31:39;;;;;;;3.45;1.77;;;;;;;7.51;66.82;99940.31;10517127;28;20087;-66
2023/12/14 10:36:44;;;;;;;3.67;2.03;;;;;;;7.40;66.85;99953.00;10517496;28;20044;-67
2023/12/14 10:41:50;;;;;;;4.28;2.03;;;;;;;7.39;66.83;99961.69;10517500;28;20679;-66
2023/12/14 10:47:04;;;;;;;2.97;1.80;;;;;;;7.41;66.86;99961.63;10515506;28;20051;-67
2023/12/14 10:52:06;;;;;;;4.13;1.60;;;;;;;7.47;66.71;99974.38;10517336;28;20480;-67
2023/12/14 10:57:08;;;;;;;3.45;1.70;;;;;;;7.47;66.62;99980.41;10516701;28;20056;-67
2023/12/14 11:02:11;;;;;;;5.20;2.40;;;;;;;7.18;66.08;99988.72;10516712;28;20403;-66
2023/12/14 11:07:15;;;;;;;4.45;2.15;;;;;;;7.29;66.30;99996.00;10516462;28;20344;-66
2023/12/14 11:12:20;;;;;;;3.97;2.00;;;;;;;7.34;66.26;99996.66;10517445;28;20050;-66
2023/12/14 11:17:22;;;;;;;5.80;2.05;;;;;;;7.36;66.32;100002.63;10516294;28;20048;-67
2023/12/14 11:22:27;;;;;;;5.80;2.60;;;;;;;7.23;66.13;100011.88;10516766;28;20047;-66
2023/12/14 11:27:30;;;;;;;6.38;2.60;;;;;;;7.32;66.06;100011.50;10516144;28;20492;-66
2023/12/14 11:32:32;;;;;;;7.57;3.10;;;;;;;7.34;66.12;100020.06;10516677;28;20652;-66
2023/12/14 11:37:35;;;;;;;8.02;3.30;;;;;;;7.45;66.19;100030.84;10496118;28;20051;-66
2023/12/14 11:42:38;;;;;;;6.93;2.95;;;;;;;7.45;66.27;100033.44;10516180;28;20131;-66
2023/12/14 11:47:40;;;;;;;5.97;3.15;;;;;;;7.53;66.34;100039.97;10515293;28;20530;-66
2023/12/14 11:52:43;;;;;;;5.40;2.65;;;;;;;7.50;66.42;100047.06;10516138;28;20048;-66
2023/12/14 11:57:49;;;;;;;19.52;3.58;;;;;;;7.52;66.39;100048.69;10515245;28;20047;-66
2023/12/14 12:02:51;;;;;;;6.45;3.22;;;;;;;7.56;66.25;100050.25;10494478;28;20428;-66
2023/12/14 12:07:57;;;;;;;10.85;3.00;;;;;;;7.60;65.88;100048.34;10514550;28;20054;-66
2023/12/14 12:13:04;;;;;;;5.57;2.80;;;;;;;7.57;65.86;100051.09;10513827;28;20740;-66
2023/12/14 12:18:11;;;;;;;5.28;2.17;;;;;;;7.51;65.67;100060.00;10498924;28;20438;-67
2023/12/14 12:23:13;;;;;;;4.43;2.22;;;;;;;7.47;65.68;100068.06;10521765;28;20446;-67
2023/12/14 12:28:15;;;;;;;4.85;2.58;;;;;;;7.47;65.56;100073.25;10522148;28;20047;-67
2023/12/14 12:33:18;;;;;;;5.45;2.42;;;;;;;7.26;64.69;100069.00;10521050;28;20040;-67
2023/12/14 12:38:20;;;;;;;5.00;2.10;;;;;;;7.30;65.41;100070.53;10503488;28;20135;-67
2023/12/14 12:43:23;;;;;;;7.80;3.08;;;;;;;7.39;65.22;100065.78;10521821;28;20058;-67
2023/12/14 12:48:25;;;;;;;5.25;2.42;;;;;;;7.51;65.28;100077.41;10537060;27;20121;-68
2023/12/14 12:53:29;;;;;;;4.55;2.10;;;;;;;7.59;64.77;100065.72;10520885;28;20602;-67
2023/12/14 12:58:31;;;;;;;4.47;2.10;;;;;;;7.58;64.54;100082.25;10486646;28;20427;-67
2023/12/14 13:03:33;;;;;;;6.40;2.03;;;;;;;7.67;64.43;100076.63;10519975;28;20044;-67
2023/12/14 13:08:35;;;;;;;8.13;2.78;;;;;;;7.74;64.70;100087.59;10502792;28;20667;-68
2023/12/14 13:13:37;;;;;;;3.88;1.80;;;;;;;7.64;64.60;100081.97;10505207;28;20548;-67
2023/12/14 13:18:39;;;;;;;3.72;1.95;;;;;;;7.56;64.55;100096.25;10510795;28;20052;-68
2023/12/14 13:23:42;;;;;;;6.13;2.55;;;;;;;7.54;64.61;100111.09;10508558;28;20563;-67
2023/12/14 13:28:44;;;;;;;2.97;1.88;;;;;;;7.29;64.84;100115.66;10513301;28;20036;-67
2023/12/14 13:33:47;;;;;;;3.58;2.13;;;;;;;7.23;65.11;100126.34;10531029;27;20044;-67
2023/12/14 13:38:49;;;;;;;4.72;1.73;;;;;;;7.15;65.11;100135.34;10515109;28;20048;-67
2023/12/14 13:43:51;;;;;;;4.53;1.73;;;;;;;7.14;65.13;100136.22;10515798;28;20080;-67
2023/12/14 13:48:53;;;;;;;3.05;1.45;;;;;;;7.15;64.96;100142.28;10515282;28;20033;-67
2023/12/14 13:53:55;;;;;;;3.20;1.45;;;;;;;6.98;64.84;100162.94;10514945;28;20125;-66
2023/12/14 13:58:58;;;;;;;3.17;1.63;;;;;;;6.88;65.16;100177.22;10514004;28;20178;-66
2023/12/14 14:04:00;;;;;;;5.72;2.67;;;;;;;6.78;65.46;100186.28;10494832;28;20400;-67
2023/12/14 14:09:04;;;;;;;3.28;1.88;;;;;;;6.65;65.65;100195.50;10514179;28;20051;-67
2023/12/14 14:14:06;;;;;;;4.85;2.13;;;;;;;6.62;65.63;100203.41;10512228;28;20391;-67
2023/12/14 14:19:08;;;;;;;4.25;2.30;;;;;;;6.61;65.68;100212.13;10509689;28;20047;-67
2023/12/14 14:24:10;;;;;;;4.45;2.33;;;;;;;6.63;65.59;100228.50;10509935;28;20055;-66
2023/12/14 14:29:12;;;;;;;4.63;2.33;;;;;;;6.57;65.13;100234.75;10511882;28;20052;-67
2023/12/14 14:34:14;;;;;;;4.18;2.28;;;;;;;6.63;65.45;100249.28;10492857;28;20044;-67
2023/12/14 14:39:18;;;;;;;3.20;1.75;;;;;;;6.63;65.25;100257.94;10491205;28;20222;-67
2023/12/14 14:44:20;;;;;;;9.77;2.30;;;;;;;6.64;64.63;100271.75;10508695;28;20047;-67
2023/12/14 14:49:25;;;;;;;6.85;3.17;;;;;;;6.55;64.70;100272.13;10489443;28;20051;-67
2023/12/14 14:54:27;;;;;;;5.80;2.20;;;;;;;6.50;64.87;100294.81;10511304;28;20040;-67
2023/12/14 14:59:30;;;;;;;4.47;2.08;;;;;;;6.40;64.94;100302.13;10511062;28;20430;-67
2023/12/14 15:04:32;;;;;;;4.30;2.30;;;;;;;6.51;64.81;100318.16;10492237;28;20504;-67
2023/12/14 15:09:34;;;;;;;5.07;2.65;;;;;;;6.50;64.88;100323.41;10511600;28;20283;-67
2023/12/14 15:14:36;;;;;;;4.38;2.40;;;;;;;6.32;65.02;100332.72;10490664;28;20048;-67
2023/12/14 15:19:38;;;;;;;3.90;1.98;;;;;;;6.11;65.00;100349.88;10510867;28;20190;-67
2023/12/14 15:24:40;;;;;;;4.57;2.30;;;;;;;6.10;65.29;100355.97;10486885;28;20040;-67
2023/12/14 15:29:42;;;;;;;4.25;2.10;;;;;;;6.00;65.07;100370.16;10493096;28;20121;-66
2023/12/14 15:34:44;;;;;;;4.50;2.55;;;;;;;5.93;65.34;100380.81;10508687;28;20052;-66
2023/12/14 15:39:48;;;;;;;4.75;2.45;;;;;;;5.87;65.29;100383.63;10510484;28;20044;-66
2023/12/14 15:44:51;;;;;;;5.18;3.22;;;;;;;5.84;64.99;100401.91;10509055;28;20048;-67
2023/12/14 15:49:53;;;;;;;7.28;2.85;;;;;;;5.85;65.42;100407.03;10509528;28;20059;-67
2023/12/14 15:54:55;;;;;;;5.72;2.25;;;;;;;5.95;64.99;100416.22;10531996;28;20134;-66
2023/12/14 15:59:57;;;;;;;10.75;2.50;;;;;;;5.81;64.93;100418.41;10519273;28;20156;-67
2023/12/14 16:04:59;;;;;;;5.97;2.97;;;;;;;5.61;65.01;100431.19;10518809;28;20130;-66
2023/12/14 16:10:02;;;;;;;5.90;2.75;;;;;;;5.57;65.07;100439.97;10518945;28;20048;-66
2023/12/14 16:15:05;;;;;;;5.25;2.90;;;;;;;5.55;65.27;100455.56;10514265;28;20040;-67
2023/12/14 16:20:07;;;;;;;5.25;2.70;;;;;;;5.65;65.19;100463.06;10513671;28;20064;-64
2023/12/14 16:25:10;;;;;;;9.35;3.85;;;;;;;5.72;65.10;100464.56;10513709;28;20059;-65
2023/12/14 16:30:13;;;;;;;7.25;3.22;;;;;;;5.83;65.16;100488.44;10514410;28;20056;-64
2023/12/14 16:35:15;;;;;;;9.05;4.20;;;;;;;5.95;64.93;100478.53;10512522;28;20071;-65
2023/12/14 16:40:19;;;;;;;7.85;3.97;;;;;;;5.94;64.97;100491.56;10513439;28;20050;-64
2023/12/14 16:45:21;;;;;;;8.38;4.30;;;;;;;5.98;64.73;100490.56;10514163;28;20055;-65
2023/12/14 16:50:23;;;;;;;7.78;3.58;;;;;;;6.04;64.80;100504.16;10514686;28;20130;-64
2023/12/14 16:55:26;;;;;;;8.25;3.47;;;;;;;6.00;64.58;100515.56;10514674;28;20304;-65
2023/12/14 17:00:28;;;;;;;8.75;4.30;;;;;;;6.04;64.60;100519.75;10480062;28;20444;-64
2023/12/14 17:05:30;;;;;;;11.77;5.32;;;;;;;6.17;64.57;100530.59;10513592;28;20050;-65
2023/12/14 17:10:32;;;;;;;8.30;4.40;;;;;;;6.18;64.41;100538.38;10511847;28;20098;-65
2023/12/14 17:15:34;;;;;;;12.38;5.07;;;;;;;6.11;64.39;100552.44;10512415;28;20036;-64
2023/12/14 17:20:37;;;;;;;10.15;4.65;;;;;;;6.18;64.69;100551.34;10531010;27;20268;-64
2023/12/14 17:25:40;;;;;;;10.07;4.90;;;;;;;6.21;64.57;100556.44;10497474;28;20128;-64
2023/12/14 17:30:42;;;;;;;7.45;3.85;;;;;;;6.19;64.57;100562.56;10514777;28;20040;-64
2023/12/14 17:35:46;;;;;;;8.15;3.75;;;;;;;6.15;64.82;100579.13;10514534;28;20737;-64
2023/12/14 17:40:48;;;;;;;8.15;4.28;;;;;;;6.12;64.95;100584.44;10514634;28;20476;-64
2023/12/14 17:45:50;;;;;;;9.60;4.10;;;;;;;6.07;64.95;100589.78;10527180;28;20415;-64
2023/12/14 17:50:52;;;;;;;7.40;4.28;;;;;;;6.06;65.11;100598.44;10513945;28;20040;-63
2023/12/14 17:55:55;;;;;;;11.23;5.88;;;;;;;6.03;65.04;100608.94;10515065;28;20128;-63
2023/12/14 18:00:59;;;;;;;10.77;5.55;;;;;;;6.08;65.28;100619.19;10493133;28;20059;-64
2023/12/14 18:06:06;;;;;;;9.10;4.90;;;;;;;6.05;65.30;100632.25;10514704;28;20040;-64
2023/12/14 18:11:08;;;;;;;13.90;6.50;;;;;;;6.05;65.36;100629.66;10509087;28;20135;-64
2023/12/14 18:16:10;;;;;;;12.27;4.00;;;;;;;6.06;65.38;100632.19;10509241;28;20145;-64
2023/12/14 18:21:12;;;;;;;6.90;3.78;;;;;;;6.14;65.23;100638.00;10508128;28;20048;-64
2023/12/14 18:26:14;;;;;;;12.25;5.43;;;;;;;6.08;65.46;100640.78;10477389;28;20047;-64
2023/12/14 18:31:16;;;;;;;6.82;4.03;;;;;;;6.19;65.68;100648.25;10490079;28;20036;-64
2023/12/14 18:36:19;;;;;;;11.15;4.20;;;;;;;6.11;65.44;100671.03;10494918;28;20372;-64
2023/12/14 18:41:21;;;;;;;7.30;3.42;;;;;;;6.16;65.49;100675.22;10510546;28;20139;-64
2023/12/14 18:46:24;;;;;;;5.63;3.22;;;;;;;6.10;65.48;100680.56;10506300;28;20073;-64
2023/12/14 18:51:26;;;;;;;8.27;3.78;;;;;;;6.12;65.45;100694.34;10506852;28;20601;-64
2023/12/14 18:56:28;;;;;;;8.38;4.03;;;;;;;6.06;65.59;100699.72;10511914;28;20058;-64
2023/12/14 19:01:33;;;;;;;7.95;4.15;;;;;;;6.02;65.69;100705.06;10493829;28;20510;-64
2023/12/14 19:06:36;;;;;;;6.15;3.22;;;;;;;6.03;65.72;100704.16;10511641;28;20491;-64
2023/12/14 19:11:38;;;;;;;10.02;3.83;;;;;;;6.01;65.63;100721.53;10492360;28;20075;-64
2023/12/14 19:16:40;;;;;;;6.78;3.38;;;;;;;5.98;65.52;100726.81;10507753;28;20072;-64
2023/12/14 19:21:42;;;;;;;5.35;2.83;;;;;;;5.91;65.43;100744.31;10505409;28;20062;-64
2023/12/14 19:26:44;;;;;;;7.07;3.35;;;;;;;5.72;65.39;100756.06;10505251;28;20534;-64
2023/12/14 19:31:46;;;;;;;8.27;3.83;;;;;;;5.60;65.32;100763.31;10505408;28;20384;-64
2023/12/14 19:36:48;;;;;;;6.97;3.78;;;;;;;5.54;65.34;100774.72;10488644;28;20056;-65
2023/12/14 19:41:52;;;;;;;8.20;3.90;;;;;;;5.52;65.19;100779.97;10502978;28;20052;-65
2023/12/14 19:46:54;;;;;;;8.23;3.67;;;;;;;5.57;64.89;100782.44;10503429;28;20071;-66
2023/12/14 19:51:56;;;;;;;8.07;3.85;;;;;;;5.47;64.74;100796.53;10504836;28;20389;-65
2023/12/14 19:57:00;;;;;;;8.23;3.55;;;;;;;5.52;64.70;100803.31;10506831;28;20498;-65
2023/12/14 20:02:07;;;;;;;9.05;4.63;;;;;;;5.62;64.33;100816.91;10506643;28;20044;-65
2023/12/14 20:07:17;;;;;;;10.40;3.38;;;;;;;5.66;64.45;100815.94;10488612;28;20044;-65
2023/12/14 20:12:23;;;;;;;7.18;3.58;;;;;;;5.64;64.30;100833.28;10509530;28;20123;-65
2023/12/14 20:17:26;;;;;;;7.85;3.55;;;;;;;5.49;64.24;100836.28;10514165;28;20048;-64
2023/12/14 20:22:32;;;;;;;6.90;3.65;;;;;;;5.45;64.50;100850.22;10490638;28;20051;-64
2023/12/14 20:27:34;;;;;;;7.82;4.07;;;;;;;5.41;64.29;100853.78;10529352;28;20048;-64
2023/12/14 20:32:36;;;;;;;8.20;4.03;;;;;;;5.39;64.56;100861.56;10496832;28;20484;-65
2023/12/14 20:37:39;;;;;;;8.98;4.15;;;;;;;5.40;64.57;100858.09;10514145;28;20055;-64
2023/12/14 20:42:41;;;;;;;8.40;3.75;;;;;;;5.38;64.20;100870.25;10521128;28;20043;-64
2023/12/14 20:47:43;;;;;;;6.00;3.22;;;;;;;5.44;64.31;100861.47;10521291;28;20113;-64
2023/12/14 20:52:47;;;;;;;8.30;4.20;;;;;;;5.45;64.39;100868.38;10521717;28;20048;-64
2023/12/14 20:57:49;;;;;;;10.07;5.15;;;;;;;5.49;63.99;100872.59;10520995;28;20056;-64
2023/12/14 21:02:51;;;;;;;8.95;3.97;;;;;;;5.52;64.25;100878.56;10517695;28;20488;-65
2023/12/14 21:07:53;;;;;;;9.13;3.97;;;;;;;5.51;64.14;100876.00;10512704;28;20203;-64
2023/12/14 21:12:55;;;;;;;7.10;3.58;;;;;;;5.63;64.11;100888.69;10495382;28;20044;-65
2023/12/14 21:17:58;;;;;;;9.43;3.90;;;;;;;5.56;63.92;100894.88;10497733;28;20052;-66
2023/12/14 21:23:00;;;;;;;7.63;3.65;;;;;;;5.51;63.68;100901.94;10496940;28;20429;-65
2023/12/14 21:28:06;;;;;;;8.02;4.38;;;;;;;5.50;63.80;100905.41;10515711;28;20416;-65
2023/12/14 21:33:08;;;;;;;9.10;4.47;;;;;;;5.54;64.03;100907.91;10497933;28;20530;-65
2023/12/14 21:38:11;;;;;;;10.85;4.93;;;;;;;5.57;63.77;100907.00;10514302;28;20060;-65
2023/12/14 21:43:14;;;;;;;9.52;4.25;;;;;;;5.61;63.45;100903.44;10489816;28;20044;-65
2023/12/14 21:48:16;;;;;;;9.88;4.35;;;;;;;5.50;63.64;100911.47;10495467;28;20055;-65
2023/12/14 21:53:18;;;;;;;8.93;4.35;;;;;;;5.40;63.66;100912.56;10515653;28;20132;-65
2023/12/14 21:58:20;;;;;;;9.93;4.07;;;;;;;5.41;63.63;100927.22;10512923;28;20097;-64
2023/12/14 22:03:26;;;;;;;6.93;3.38;;;;;;;5.31;63.66;100932.69;10511578;28;20196;-65
2023/12/14 22:08:29;;;;;;;8.20;4.07;;;;;;;5.15;63.61;100947.72;10499829;28;20063;-65
2023/12/14 22:13:31;;;;;;;10.48;4.18;;;;;;;4.96;63.79;100953.31;10517197;28;20170;-64
2023/12/14 22:18:33;;;;;;;9.77;4.25;;;;;;;4.83;64.08;100957.03;10513636;28;20056;-64
2023/12/14 22:23:36;;;;;;;10.23;4.93;;;;;;;4.62;64.44;100968.66;10515216;28;20043;-65
2023/12/14 22:28:38;;;;;;;8.90;4.30;;;;;;;4.51;64.53;100979.25;10515841;28;20036;-64
2023/12/14 22:33:40;;;;;;;11.07;5.07;;;;;;;4.41;64.62;100990.63;10515685;28;20063;-64
2023/12/14 22:38:42;;;;;;;12.05;4.72;;;;;;;4.33;64.78;101002.88;10514390;28;20051;-64
2023/12/14 22:43:44;;;;;;;11.63;5.22;;;;;;;4.23;64.78;101010.84;10514698;28;20051;-64
2023/12/14 22:48:46;;;;;;;12.27;4.40;;;;;;;4.25;64.72;101019.44;10497580;28;20499;-64
2023/12/14 22:53:48;;;;;;;10.13;4.47;;;;;;;4.33;64.72;101033.94;10515032;28;20075;-65
2023/12/14 22:58:51;;;;;;;11.00;5.07;;;;;;;4.40;64.62;101027.78;10496320;28;20052;-64
2023/12/14 23:03:53;;;;;;;9.73;4.43;;;;;;;4.51;64.71;101044.03;10513776;28;20040;-65
2023/12/14 23:08:56;;;;;;;9.98;5.40;;;;;;;4.68;64.53;101047.16;10515010;28;20100;-64
2023/12/14 23:13:58;;;;;;;9.25;3.97;;;;;;;4.77;64.65;101056.50;10515394;28;20572;-64
2023/12/14 23:19:00;;;;;;;9.55;4.85;;;;;;;4.76;64.51;101049.59;10515432;28;20344;-64
2023/12/14 23:24:03;;;;;;;8.88;4.28;;;;;;;4.76;64.84;101048.75;10499145;28;20496;-64
2023/12/14 23:29:05;;;;;;;6.28;3.63;;;;;;;4.76;64.82;101069.50;10531572;28;20106;-65
2023/12/14 23:34:07;;;;;;;11.18;4.18;;;;;;;4.76;64.96;101074.69;10481938;28;20044;-65